Time;durP1;ratioP1;P1;durP2;ratioP2;P2;SDS_P1;SDS_P2;PMS_P1;PMS_P2;Temp;Humidity;BMP_temperature;BMP_pressure;BME280_temperature;BME280_humidity;BME280_pressure;Samples;Min_cycle;Max_cycle;Signal;HPM_P1;HPM_P2
2023/06/28 00:01:00;;;;;;;;;3.50;3.50;;;;;24.58;37.95;101539.75;4957848;28;45360;-43
2023/06/28 00:03:28;;;;;;;;;5.25;3.00;;;;;24.58;37.88;101539.75;4957844;28;45251;-44
2023/06/28 00:05:53;;;;;;;;;4.75;3.00;;;;;24.57;38.52;101531.91;4957916;28;45465;-47
2023/06/28 00:08:19;;;;;;;;;4.75;4.50;;;;;24.56;38.07;101533.69;4957513;28;46011;-48
2023/06/28 00:10:44;;;;;;;;;5.75;3.25;;;;;24.55;38.46;101529.31;4957653;28;51339;-50
2023/06/28 00:13:10;;;;;;;;;6.00;4.00;;;;;24.52;38.00;101525.06;4957729;28;45834;-52
2023/06/28 00:15:35;;;;;;;;;4.00;4.00;;;;;24.55;38.25;101534.63;4957621;28;45531;-49
2023/06/28 00:18:03;;;;;;;;;4.50;4.00;;;;;24.53;38.12;101531.22;4957509;28;46888;-48
2023/06/28 00:20:29;;;;;;;;;6.25;4.50;;;;;24.53;37.98;101525.91;4957399;28;45933;-51
2023/06/28 00:22:54;;;;;;;;;3.50;3.50;;;;;24.52;38.33;101524.22;4956244;28;45219;-49
2023/06/28 00:25:20;;;;;;;;;9.50;3.50;;;;;24.49;38.10;101519.13;4957659;28;45305;-50
2023/06/28 00:27:45;;;;;;;;;3.25;2.50;;;;;24.48;37.77;101520.91;4957634;28;45250;-51
2023/06/28 00:30:11;;;;;;;;;6.00;4.00;;;;;24.51;37.74;101527.81;4957208;28;45551;-45
2023/06/28 00:32:36;;;;;;;;;5.00;3.00;;;;;24.51;37.84;101527.81;4957577;28;45258;-43
2023/06/28 00:35:02;;;;;;;;;2.50;2.00;;;;;24.51;38.18;101527.81;4957552;28;45637;-52
2023/06/28 00:37:27;;;;;;;;;5.75;3.25;;;;;24.48;37.96;101517.41;4957265;28;45673;-49
2023/06/28 00:39:52;;;;;;;;;3.00;3.00;;;;;24.50;38.26;101520.81;4956699;28;60448;-44
2023/06/28 00:42:17;;;;;;;;;2.25;2.25;;;;;24.47;37.81;101528.94;4957385;28;45514;-42
2023/06/28 00:44:43;;;;;;;;;6.00;3.00;;;;;24.45;38.06;101522.88;4957426;28;47041;-43
2023/06/28 00:47:08;;;;;;;;;3.25;2.25;;;;;24.42;38.34;101525.75;4960085;28;45420;-42
2023/06/28 00:49:37;;;;;;;;;4.75;3.00;;;;;24.42;38.35;101523.09;4960542;28;45446;-42
2023/06/28 00:52:03;;;;;;;;;3.00;2.25;;;;;24.41;37.93;101518.75;4960726;28;45373;-48
2023/06/28 00:54:29;;;;;;;;;2.00;2.00;;;;;24.37;37.86;101513.63;4960763;28;45479;-47
2023/06/28 00:56:54;;;;;;;;;3.00;3.00;;;;;24.39;38.67;101517.03;4960474;28;45376;-43
2023/06/28 00:59:21;;;;;;;;;2.50;2.00;;;;;24.39;38.02;101516.16;4959188;28;45393;-47
2023/06/28 01:01:49;;;;;;;;;2.00;2.00;;;;;24.36;38.46;101509.25;4960884;28;45191;-47
2023/06/28 01:04:15;;;;;;;;;6.00;4.00;;;;;24.35;38.44;101518.16;4960851;28;45346;-51
2023/06/28 01:06:51;;;;;;;;;4.00;2.50;;;;;24.33;38.06;101509.44;4960331;28;45360;-43
2023/06/28 01:09:19;;;;;;;;;3.00;3.00;;;;;24.35;38.44;101507.56;4960504;28;45875;-46
2023/06/28 01:11:46;;;;;;;;;3.25;3.25;;;;;24.34;37.90;101507.66;4960779;28;45258;-41
2023/06/28 01:14:13;;;;;;;;;3.00;3.00;;;;;24.32;37.80;101509.56;4960618;28;45388;-44
2023/06/28 01:16:39;;;;;;;;;3.75;3.50;;;;;24.31;37.91;101508.69;4960187;28;45372;-42
2023/06/28 01:19:05;;;;;;;;;5.75;3.00;;;;;24.31;37.97;101511.34;4960179;28;45761;-44
2023/06/28 01:21:37;;;;;;;;;4.25;3.00;;;;;24.31;38.58;101499.91;4960355;28;45496;-43
2023/06/28 01:24:03;;;;;;;;;2.00;2.00;;;;;24.30;38.08;101504.34;4960270;28;45317;-48
2023/06/28 01:26:29;;;;;;;;;4.50;3.25;;;;;24.31;38.39;101511.34;4960008;28;46167;-43
2023/06/28 01:28:55;;;;;;;;;3.00;2.75;;;;;24.32;38.46;101509.56;4960157;28;45348;-45
2023/06/28 01:31:21;;;;;;;;;3.50;3.00;;;;;24.33;38.12;101509.44;4959890;28;45443;-44
2023/06/28 01:33:48;;;;;;;;;2.50;2.50;;;;;24.32;38.52;101507.75;4959266;28;45602;-44
2023/06/28 01:36:13;;;;;;;;;3.00;3.00;;;;;24.30;38.19;101504.34;4959883;28;45381;-42
2023/06/28 01:38:41;;;;;;;;;10.00;5.00;;;;;24.31;38.37;101507.84;4959887;28;45416;-42
2023/06/28 01:41:08;;;;;;;;;3.75;3.75;;;;;24.30;38.10;101507.00;4959994;28;45322;-44
2023/06/28 01:43:34;;;;;;;;;5.00;4.50;;;;;24.30;38.13;101503.47;4960057;28;45404;-41
2023/06/28 01:46:00;;;;;;;;;6.00;6.00;;;;;24.29;38.05;101502.66;4959610;28;45360;-44
2023/06/28 01:48:26;;;;;;;;;6.75;6.75;;;;;24.29;38.51;101504.44;4959736;28;45430;-41
2023/06/28 01:50:52;;;;;;;;;8.25;7.75;;;;;24.28;38.49;101503.59;4960034;28;45466;-46
2023/06/28 01:53:18;;;;;;;;;13.75;9.75;;;;;24.27;38.29;101493.06;4960326;28;45399;-45
2023/06/28 01:55:44;;;;;;;;;12.00;10.00;;;;;24.25;38.42;101495.81;4959510;28;46456;-50
2023/06/28 01:58:09;;;;;;;;;13.00;10.25;;;;;24.26;38.67;101489.59;4959525;28;45896;-50
2023/06/28 02:00:35;;;;;;;;;16.25;12.25;;;;;24.25;38.62;101490.53;4959569;28;45166;-48
2023/06/28 02:03:00;;;;;;;;;13.00;11.25;;;;;24.26;38.02;101496.66;4959645;28;45614;-45
2023/06/28 02:05:26;;;;;;;;;14.50;13.50;;;;;24.25;38.24;101493.19;4959219;28;46352;-41
2023/06/28 02:07:51;;;;;;;;;13.00;10.25;;;;;24.23;38.03;101495.06;4959810;28;45285;-44
2023/06/28 02:10:18;;;;;;;;;12.25;10.75;;;;;24.21;38.01;101489.88;4959539;28;45170;-51
2023/06/28 02:12:43;;;;;;;;;11.50;11.50;;;;;24.17;37.95;101484.84;4959545;28;45424;-45
2023/06/28 02:15:09;;;;;;;;;13.50;11.75;;;;;24.16;38.34;101491.09;4957908;28;46973;-45
2023/06/28 02:17:35;;;;;;;;;12.75;11.75;;;;;24.14;37.91;101487.69;4959219;28;45386;-44
2023/06/28 02:20:01;;;;;;;;;11.00;9.25;;;;;24.12;37.90;101489.56;4959245;28;45356;-51
2023/06/28 02:22:26;;;;;;;;;14.00;12.00;;;;;24.09;38.22;101490.59;4959452;28;45555;-51
2023/06/28 02:24:52;;;;;;;;;11.25;10.75;;;;;24.08;38.29;101488.91;4959228;28;45625;-53
2023/06/28 02:27:17;;;;;;;;;13.25;9.75;;;;;24.06;38.26;101489.00;4959190;28;45431;-51
2023/06/28 02:29:42;;;;;;;;;13.75;10.25;;;;;24.05;38.06;101489.06;4959163;28;45735;-52
2023/06/28 02:32:08;;;;;;;;;11.50;10.75;;;;;24.02;37.89;101478.69;4959120;28;45393;-52
2023/06/28 02:34:33;;;;;;;;;8.00;7.50;;;;;24.02;38.16;101476.88;4959006;28;46145;-43
2023/06/28 02:36:59;;;;;;;;;13.25;12.25;;;;;24.01;37.62;101475.19;4957741;28;45433;-46
2023/06/28 02:39:24;;;;;;;;;12.50;11.00;;;;;23.98;37.92;101475.34;4959144;28;45339;-46
2023/06/28 02:41:50;;;;;;;;;12.33;11.00;;;;;23.98;37.86;101480.66;4957569;28;56430;-45
2023/06/28 02:44:15;;;;;;;;;11.50;9.75;;;;;23.99;37.41;101481.50;4958710;28;45816;-46
2023/06/28 02:46:40;;;;;;;;;13.50;11.50;;;;;24.00;37.86;101476.13;4958673;28;45287;-47
2023/06/28 02:49:07;;;;;;;;;10.75;10.75;;;;;24.01;37.63;101477.81;4959039;28;45381;-44
2023/06/28 02:51:32;;;;;;;;;17.25;11.75;;;;;24.00;37.52;101476.13;4959144;28;45582;-43
2023/06/28 02:53:57;;;;;;;;;12.25;11.50;;;;;24.01;37.34;101479.63;4958574;28;46006;-44
2023/06/28 02:56:23;;;;;;;;;15.75;11.75;;;;;24.03;37.57;101477.75;4958570;28;53663;-45
2023/06/28 02:58:49;;;;;;;;;11.50;10.00;;;;;24.03;37.17;101478.59;4958769;28;45471;-46
2023/06/28 03:01:14;;;;;;;;;12.50;11.00;;;;;24.05;37.07;101473.19;4957561;28;45549;-44
2023/06/28 03:03:40;;;;;;;;;8.00;7.00;;;;;24.04;37.39;101472.34;4958561;28;46087;-43
2023/06/28 03:06:05;;;;;;;;;7.00;6.00;;;;;24.05;37.09;101468.75;4958368;28;45333;-42
2023/06/28 03:08:31;;;;;;;;;10.50;9.25;;;;;24.05;37.11;101476.69;4958261;28;45399;-44
2023/06/28 03:10:56;;;;;;;;;8.50;8.50;;;;;24.04;36.74;101480.28;4958752;28;45719;-45
2023/06/28 03:13:21;;;;;;;;;11.25;8.25;;;;;24.02;36.89;101478.69;4958521;28;46438;-46
2023/06/28 03:15:47;;;;;;;;;10.75;9.00;;;;;23.98;36.68;101475.34;4958440;28;45471;-44
2023/06/28 03:18:12;;;;;;;;;10.00;6.25;;;;;23.99;37.21;101474.41;4958525;28;45426;-47
2023/06/28 03:20:37;;;;;;;;;4.75;4.75;;;;;23.98;36.79;101479.81;4958749;28;45321;-43
2023/06/28 03:23:03;;;;;;;;;9.50;8.00;;;;;23.94;36.90;101469.34;4957796;28;58187;-45
2023/06/28 03:25:29;;;;;;;;;7.50;7.00;;;;;23.96;36.79;101482.56;4958300;28;45324;-42
2023/06/28 03:27:54;;;;;;;;;6.00;6.00;;;;;23.95;37.13;101472.91;4958668;28;45797;-44
2023/06/28 03:30:19;;;;;;;;;8.25;8.00;;;;;23.93;37.21;101477.41;4957664;28;53903;-43
2023/06/28 03:32:45;;;;;;;;;6.00;6.00;;;;;23.91;36.60;101466.06;4958169;28;45324;-47
2023/06/28 03:35:10;;;;;;;;;5.25;5.25;;;;;23.88;37.20;101468.88;4958229;28;45418;-43
2023/06/28 03:37:35;;;;;;;;;7.00;5.00;;;;;23.89;37.16;101470.59;4958370;28;45179;-45
2023/06/28 03:40:01;;;;;;;;;6.75;4.00;;;;;23.88;36.64;101474.16;4958349;28;45380;-44
2023/06/28 03:42:27;;;;;;;;;8.00;6.00;;;;;23.86;37.13;101474.28;4958166;28;45345;-46
2023/06/28 03:44:52;;;;;;;;;7.00;5.00;;;;;23.85;36.82;101474.38;4957614;28;56819;-46
2023/06/28 03:47:17;;;;;;;;;6.75;4.25;;;;;23.85;37.04;101477.03;4957947;28;45470;-46
2023/06/28 03:49:45;;;;;;;;;5.75;4.50;;;;;23.80;37.30;101468.50;4958199;28;45381;-42
2023/06/28 03:52:10;;;;;;;;;8.25;5.00;;;;;23.80;37.28;101472.00;4957775;28;46204;-48
2023/06/28 03:54:36;;;;;;;;;5.50;5.50;;;;;23.78;37.38;101464.13;4957757;28;45391;-52
2023/06/28 03:57:01;;;;;;;;;4.75;4.00;;;;;23.80;36.80;101468.50;4957861;28;45341;-52
2023/06/28 03:59:27;;;;;;;;;5.00;5.00;;;;;23.82;37.16;101470.09;4958352;28;45317;-53
2023/06/28 04:01:52;;;;;;;;;7.75;3.00;;;;;23.82;37.60;101474.53;4957611;28;51770;-51
2023/06/28 04:04:17;;;;;;;;;8.00;5.00;;;;;23.82;37.55;101469.25;4956998;28;60355;-45
2023/06/28 04:06:42;;;;;;;;;4.00;4.00;;;;;23.81;37.60;101471.06;4957241;28;58887;-51
2023/06/28 04:09:08;;;;;;;;;4.50;3.25;;;;;23.80;37.31;101473.78;4957870;28;45246;-53
2023/06/28 04:11:33;;;;;;;;;4.25;2.50;;;;;23.80;37.57;101468.50;4957431;28;46499;-41
2023/06/28 04:13:59;;;;;;;;;5.50;3.00;;;;;23.79;37.67;101467.66;4957858;28;45364;-43
2023/06/28 04:16:25;;;;;;;;;4.00;3.00;;;;;23.78;37.49;101466.78;4957751;28;45707;-45
2023/06/28 04:18:52;;;;;;;;;3.25;3.25;;;;;23.78;37.23;101466.78;4957906;28;45347;-42
2023/06/28 04:21:18;;;;;;;;;5.50;3.00;;;;;23.81;37.52;101472.84;4956417;28;47162;-43
2023/06/28 04:23:43;;;;;;;;;7.50;4.00;;;;;23.81;37.35;101476.34;4957539;28;45405;-46
2023/06/28 04:26:08;;;;;;;;;3.00;3.00;;;;;23.84;37.14;101475.31;4956155;28;45330;-43
2023/06/28 04:28:34;;;;;;;;;4.00;3.00;;;;;23.84;37.30;101472.66;4957612;28;45387;-41
2023/06/28 04:30:59;;;;;;;;;4.50;3.00;;;;;23.82;37.28;101466.59;4955775;28;57832;-44
2023/06/28 04:33:24;;;;;;;;;4.25;3.00;;;;;23.83;37.72;101474.44;4957289;28;45391;-43
2023/06/28 04:35:50;;;;;;;;;3.00;3.00;;;;;23.81;37.25;101470.19;4957544;28;45406;-45
2023/06/28 04:38:15;;;;;;;;;4.75;3.25;;;;;23.82;37.17;101477.19;4957482;28;45523;-48
2023/06/28 04:40:41;;;;;;;;;4.50;3.00;;;;;23.83;37.47;101470.97;4955875;28;46668;-49
2023/06/28 04:43:10;;;;;;;;;3.75;3.00;;;;;23.83;37.48;101469.16;4957166;28;45431;-44
2023/06/28 04:45:36;;;;;;;;;5.75;5.00;;;;;23.85;37.84;101477.03;4957261;28;45277;-43
2023/06/28 04:48:06;;;;;;;;;5.75;4.25;;;;;23.84;37.63;101467.38;4957717;28;45636;-47
2023/06/28 04:50:36;;;;;;;;;7.25;5.00;;;;;23.86;38.00;101466.31;4957290;28;45708;-44
2023/06/28 04:53:06;;;;;;;;;6.00;5.50;;;;;23.88;37.90;101469.75;4957483;28;45768;-47
2023/06/28 04:55:34;;;;;;;;;6.25;4.75;;;;;23.83;37.23;101468.31;4957379;28;45439;-42
2023/06/28 04:58:05;;;;;;;;;5.25;5.25;;;;;23.85;37.01;101466.44;4957625;28;45229;-43
2023/06/28 05:00:31;;;;;;;;;10.25;6.25;;;;;23.83;36.78;101468.31;4957095;28;46543;-45
2023/06/28 05:03:00;;;;;;;;;7.75;5.25;;;;;23.80;36.52;101460.53;4956873;28;45376;-46
2023/06/28 05:05:29;;;;;;;;;5.75;5.50;;;;;23.78;36.77;101461.47;4956981;28;45306;-45
2023/06/28 05:07:55;;;;;;;;;7.75;6.50;;;;;23.79;37.04;101467.66;4956985;28;45530;-53
2023/06/28 05:10:22;;;;;;;;;3.00;3.00;;;;;23.77;36.98;101469.53;4955563;28;47468;-42
2023/06/28 05:12:50;;;;;;;;;5.25;4.50;;;;;23.76;36.90;101466.00;4952022;28;45385;-42
2023/06/28 05:15:15;;;;;;;;;5.00;5.00;;;;;23.74;37.13;101462.63;4934851;28;45212;-45
2023/06/28 05:17:41;;;;;;;;;6.00;5.75;;;;;23.76;36.90;101460.72;4957062;28;45257;-48
2023/06/28 05:20:07;;;;;;;;;9.25;6.00;;;;;23.77;36.93;101459.78;4956126;28;58620;-48
2023/06/28 05:22:32;;;;;;;;;4.50;4.50;;;;;23.76;37.17;101463.38;4956980;28;45228;-45
2023/06/28 05:24:57;;;;;;;;;5.50;4.00;;;;;23.80;37.46;101465.84;4956219;28;45244;-44
2023/06/28 05:27:23;;;;;;;;;5.00;5.00;;;;;23.80;37.43;101458.78;4956941;28;45272;-45
2023/06/28 05:29:48;;;;;;;;;6.25;4.75;;;;;23.83;37.19;101457.72;4956580;28;45455;-42
2023/06/28 05:32:18;;;;;;;;;5.00;4.00;;;;;23.83;37.47;101463.84;4957900;28;45349;-44
2023/06/28 05:34:43;;;;;;;;;7.00;5.00;;;;;23.83;37.68;101452.44;4960243;28;45480;-53
2023/06/28 05:37:08;;;;;;;;;6.00;4.00;;;;;23.82;37.74;101450.72;4959494;28;53287;-45
2023/06/28 05:39:35;;;;;;;;;3.00;3.00;;;;;23.78;37.43;101453.53;4960159;28;46149;-45
2023/06/28 05:42:00;;;;;;;;;3.50;3.50;;;;;23.78;37.83;101450.91;4959959;28;45242;-46
2023/06/28 05:44:25;;;;;;;;;3.50;2.00;;;;;23.76;37.42;101458.06;4959730;28;45384;-45
2023/06/28 05:46:52;;;;;;;;;3.00;2.25;;;;;23.74;37.90;101451.19;4959624;28;47251;-44
2023/06/28 05:49:18;;;;;;;;;3.50;2.50;;;;;23.73;37.89;101447.69;4959114;28;46479;-43
2023/06/28 05:51:44;;;;;;;;;3.00;3.00;;;;;23.72;38.18;101450.41;4959629;28;45310;-42
2023/06/28 05:54:09;;;;;;;;;3.00;3.00;;;;;23.72;37.97;101453.94;4958488;28;45379;-45
2023/06/28 05:56:34;;;;;;;;;6.25;3.00;;;;;23.72;38.24;101456.56;4959905;28;45324;-42
2023/06/28 05:59:00;;;;;;;;;3.25;3.25;;;;;23.73;37.84;101458.28;4959369;28;49829;-46
2023/06/28 06:01:25;;;;;;;;;2.75;2.25;;;;;23.74;38.25;101457.34;4959393;28;45355;-43
2023/06/28 06:03:51;;;;;;;;;3.75;3.25;;;;;23.73;38.43;101442.41;4959481;28;45447;-42
2023/06/28 06:06:17;;;;;;;;;4.00;4.00;;;;;23.77;38.37;101454.50;4959664;28;45319;-50
2023/06/28 06:08:43;;;;;;;;;3.75;2.75;;;;;23.77;37.99;101446.53;4959413;28;46192;-47
2023/06/28 06:11:08;;;;;;;;;2.75;2.75;;;;;23.78;38.08;101456.19;4959484;28;45341;-47
2023/06/28 06:13:33;;;;;;;;;4.00;2.25;;;;;23.81;38.19;101454.31;4959811;28;45313;-51
2023/06/28 06:15:59;;;;;;;;;3.50;3.00;;;;;23.81;38.77;101460.47;4959632;28;45235;-54
2023/06/28 06:18:24;;;;;;;;;3.00;3.00;;;;;23.78;38.81;101456.19;4959117;28;45305;-52
2023/06/28 06:20:50;;;;;;;;;4.00;2.50;;;;;23.84;38.19;101464.72;4959089;28;46287;-53
2023/06/28 06:23:17;;;;;;;;;5.75;3.25;;;;;23.86;38.97;101460.19;4959316;28;45253;-52
2023/06/28 06:25:42;;;;;;;;;1.75;1.75;;;;;23.89;38.31;101457.34;4959529;28;45363;-44
2023/06/28 06:28:08;;;;;;;;;3.00;2.00;;;;;23.91;38.54;101450.16;4958146;28;45432;-43
2023/06/28 06:30:33;;;;;;;;;5.00;3.00;;;;;23.94;39.02;101463.22;4946297;28;45514;-48
2023/06/28 06:32:59;;;;;;;;;4.00;2.25;;;;;23.94;38.55;101461.41;4939023;28;45396;-46
2023/06/28 06:35:26;;;;;;;;;4.00;3.50;;;;;23.96;39.09;101466.69;4938981;28;45579;-50
2023/06/28 06:37:51;;;;;;;;;3.00;2.75;;;;;23.96;38.70;101464.03;4937532;28;47144;-41
2023/06/28 06:40:17;;;;;;;;;3.25;3.00;;;;;23.93;38.91;101461.53;4938927;28;45590;-41
2023/06/28 06:42:42;;;;;;;;;3.50;3.50;;;;;23.93;38.83;101462.34;4938404;28;45444;-49
2023/06/28 06:45:08;;;;;;;;;2.00;2.00;;;;;23.93;38.81;101469.47;4939624;28;45481;-45
2023/06/28 06:47:37;;;;;;;;;3.50;3.00;;;;;23.92;38.91;101468.59;4938670;28;46598;-47
2023/06/28 06:50:02;;;;;;;;;4.00;4.00;;;;;23.93;39.36;101464.16;4938729;28;45241;-42
2023/06/28 06:52:27;;;;;;;;;7.00;2.75;;;;;23.92;39.20;101462.47;4938886;28;45231;-44
2023/06/28 06:54:53;;;;;;;;;4.25;3.50;;;;;23.92;39.10;101462.47;4938792;28;45530;-46
2023/06/28 06:57:18;;;;;;;;;5.50;4.00;;;;;23.89;38.98;101462.63;4938382;28;45980;-46
2023/06/28 06:59:44;;;;;;;;;3.75;3.75;;;;;23.91;39.40;101471.34;4938741;28;45294;-50
2023/06/28 07:02:09;;;;;;;;;3.00;3.00;;;;;23.90;39.09;101473.16;4939296;28;45422;-46
2023/06/28 07:04:34;;;;;;;;;6.25;5.25;;;;;23.87;39.26;101467.16;4939452;28;45322;-43
2023/06/28 07:07:00;;;;;;;;;5.00;5.00;;;;;23.87;39.57;101469.81;4939295;28;46944;-47
2023/06/28 07:09:26;;;;;;;;;6.75;4.00;;;;;23.85;39.54;101464.63;4938778;28;56939;-44
2023/06/28 07:11:52;;;;;;;;;4.50;2.75;;;;;23.87;39.49;101469.81;4939336;28;45317;-49
2023/06/28 07:14:17;;;;;;;;;3.00;3.00;;;;;23.87;39.35;101469.81;4939077;28;45588;-48
2023/06/28 07:16:44;;;;;;;;;3.00;2.67;;;;;23.91;39.53;101474.00;4938235;28;64504;-48
2023/06/28 07:19:10;;;;;;;;;7.25;4.00;;;;;23.95;39.88;101475.56;4939141;28;45776;-46
2023/06/28 07:21:36;;;;;;;;;7.25;4.75;;;;;23.96;40.09;101464.03;4939087;28;45179;-49
2023/06/28 07:24:01;;;;;;;;;5.50;4.00;;;;;23.95;39.80;101467.63;4936717;28;50736;-45
2023/06/28 07:26:27;;;;;;;;;7.00;5.00;;;;;23.93;39.46;101470.31;4934357;28;58558;-42
2023/06/28 07:28:52;;;;;;;;;5.50;4.75;;;;;23.90;39.63;101465.22;4936543;28;45504;-42
2023/06/28 07:31:18;;;;;;;;;5.75;4.00;;;;;23.89;40.08;101474.09;4937424;28;45532;-42
2023/06/28 07:33:43;;;;;;;;;5.00;5.00;;;;;23.87;39.69;101477.75;4937151;28;56232;-42
2023/06/28 07:36:08;;;;;;;;;3.25;3.25;;;;;23.85;40.30;101477.03;4937494;28;57970;-48
2023/06/28 07:38:34;;;;;;;;;5.00;4.00;;;;;23.85;40.17;101482.31;4937593;28;45507;-44
2023/06/28 07:41:00;;;;;;;;;8.00;6.00;;;;;23.84;40.27;101484.09;4938551;28;45366;-44
2023/06/28 07:43:25;;;;;;;;;4.75;4.75;;;;;23.83;40.50;101481.53;4938949;28;45342;-49
2023/06/28 07:45:52;;;;;;;;;5.50;4.75;;;;;23.79;40.51;101478.25;4937305;28;45417;-53
2023/06/28 07:48:17;;;;;;;;;4.00;4.00;;;;;23.76;39.93;101468.66;4938379;28;45412;-45
2023/06/28 07:50:44;;;;;;;;;4.75;3.00;;;;;23.76;40.01;101466.00;4938660;28;45398;-42
2023/06/28 07:53:10;;;;;;;;;5.00;3.50;;;;;23.78;40.69;101471.25;4938984;28;45532;-53
2023/06/28 07:55:35;;;;;;;;;5.25;4.75;;;;;23.79;40.29;101470.28;4938109;28;45298;-56
2023/06/28 07:58:01;;;;;;;;;3.75;3.75;;;;;23.75;40.40;101463.47;4938426;28;45333;-54
2023/06/28 08:00:28;;;;;;;;;7.00;5.00;;;;;23.75;40.68;101456.41;4938471;28;45242;-46
2023/06/28 08:02:54;;;;;;;;;6.50;5.50;;;;;23.78;40.39;101461.47;4938498;28;45361;-48
2023/06/28 08:05:23;;;;;;;;;7.00;5.00;;;;;23.80;40.76;101458.78;4938019;28;46626;-58
2023/06/28 08:07:48;;;;;;;;;6.50;5.00;;;;;23.83;40.04;101457.72;4938128;28;45658;-44
2023/06/28 08:10:14;;;;;;;;;5.50;5.00;;;;;23.86;40.25;101460.19;4938482;28;45313;-43
2023/06/28 08:12:39;;;;;;;;;5.25;4.50;;;;;23.90;40.10;101457.28;4938708;28;45526;-59
2023/06/28 08:15:05;;;;;;;;;6.00;4.75;;;;;23.94;40.50;101463.22;4936635;28;48429;-57
2023/06/28 08:17:30;;;;;;;;;4.75;4.75;;;;;23.95;40.11;101462.31;4937942;28;45369;-56
2023/06/28 08:19:55;;;;;;;;;6.00;4.00;;;;;23.96;40.47;101464.03;4938318;28;45342;-54
2023/06/28 08:22:21;;;;;;;;;6.00;4.75;;;;;23.96;40.14;101466.69;4938418;28;45345;-51
2023/06/28 08:24:47;;;;;;;;;3.25;3.25;;;;;23.95;40.30;101459.66;4937927;28;45264;-44
2023/06/28 08:27:13;;;;;;;;;5.00;5.00;;;;;23.96;40.23;101464.03;4938397;28;45693;-44
2023/06/28 08:29:38;;;;;;;;;6.75;5.00;;;;;23.95;40.28;101467.63;4938120;28;45417;-42
2023/06/28 08:32:04;;;;;;;;;8.00;4.33;;;;;23.96;40.29;101466.69;4937107;28;53729;-42
2023/06/28 08:34:29;;;;;;;;;6.50;4.00;;;;;23.96;40.52;101468.44;4937747;28;46688;-45
2023/06/28 08:36:54;;;;;;;;;7.50;3.00;;;;;23.94;40.61;101455.28;4937446;28;54311;-41
2023/06/28 08:39:23;;;;;;;;;4.50;4.50;;;;;23.97;40.35;101455.16;4936631;28;45318;-44
2023/06/28 08:41:50;;;;;;;;;5.50;4.75;;;;;23.98;40.33;101451.53;4938092;28;45500;-41
2023/06/28 08:44:20;;;;;;;;;7.00;6.00;;;;;24.01;39.98;101446.03;4937748;28;46978;-45
2023/06/28 08:46:48;;;;;;;;;4.25;4.25;;;;;24.03;40.34;101440.69;4936542;28;45740;-44
2023/06/28 08:49:14;;;;;;;;;3.50;3.50;;;;;24.05;40.30;101436.13;4938074;28;45397;-46
2023/06/28 08:51:39;;;;;;;;;6.00;6.00;;;;;24.07;40.09;101440.41;4938021;28;45637;-43
2023/06/28 08:54:07;;;;;;;;;9.00;5.00;;;;;24.09;40.16;101441.13;4937481;28;47022;-44
2023/06/28 08:56:33;;;;;;;;;5.00;5.00;;;;;24.12;40.31;101436.59;4937640;28;45235;-45
2023/06/28 08:58:58;;;;;;;;;5.00;5.00;;;;;24.13;40.18;101446.25;4937910;28;45337;-42
2023/06/28 09:01:24;;;;;;;;;7.00;5.50;;;;;24.14;40.43;101447.94;4937751;28;45360;-46
2023/06/28 09:03:50;;;;;;;;;6.50;4.75;;;;;24.15;39.88;101444.38;4937486;28;45429;-42
2023/06/28 09:06:16;;;;;;;;;4.50;3.75;;;;;24.13;40.04;101438.31;4937940;28;45352;-46
2023/06/28 09:08:43;;;;;;;;;4.00;4.00;;;;;24.14;40.12;101445.31;4939653;28;45469;-44
2023/06/28 09:11:08;;;;;;;;;4.75;4.75;;;;;24.14;40.05;101442.66;4940989;28;45195;-42
2023/06/28 09:13:34;;;;;;;;;5.25;4.25;;;;;24.14;39.50;101437.34;4940714;28;45216;-43
2023/06/28 09:16:00;;;;;;;;;7.00;5.25;;;;;24.13;39.83;101438.31;4939336;28;45286;-42
2023/06/28 09:18:25;;;;;;;;;5.25;5.00;;;;;24.15;40.15;101447.00;4940823;28;45444;-43
2023/06/28 09:20:54;;;;;;;;;6.50;6.00;;;;;24.13;39.77;101443.59;4940592;28;45583;-43
2023/06/28 09:23:24;;;;;;;;;5.00;5.00;;;;;24.16;39.74;101446.06;4940534;28;46279;-45
2023/06/28 09:25:50;;;;;;;;;8.00;5.00;;;;;24.15;40.12;101445.19;4940578;28;45360;-46
2023/06/28 09:28:16;;;;;;;;;5.25;5.25;;;;;24.15;40.44;101439.91;4941219;28;45305;-43
2023/06/28 09:30:41;;;;;;;;;8.00;6.50;;;;;24.17;39.85;101438.03;4939544;28;45589;-44
2023/06/28 09:33:07;;;;;;;;;7.00;6.00;;;;;24.16;40.32;101438.97;4940575;28;45314;-44
2023/06/28 09:35:39;;;;;;;;;8.00;6.25;;;;;24.18;39.93;101433.59;4939120;28;45378;-43
2023/06/28 09:38:08;;;;;;;;;6.25;6.25;;;;;24.22;40.48;101433.31;4940594;28;45346;-44
2023/06/28 09:40:36;;;;;;;;;5.00;5.00;;;;;24.21;40.47;101433.38;4940782;28;45471;-47
2023/06/28 09:43:02;;;;;;;;;7.50;6.50;;;;;24.23;40.41;101436.78;4940015;28;46252;-56
2023/06/28 09:45:33;;;;;;;;;7.00;6.25;;;;;24.26;40.28;101433.97;4940309;28;45406;-44
2023/06/28 09:48:03;;;;;;;;;6.75;5.50;;;;;24.29;40.55;101425.84;4938936;28;45286;-51
2023/06/28 09:50:36;;;;;;;;;6.00;6.00;;;;;24.30;39.91;101424.88;4940484;28;45226;-45
2023/06/28 09:53:02;;;;;;;;;8.25;6.75;;;;;24.31;39.96;101420.44;4940124;28;47376;-51
2023/06/28 09:55:28;;;;;;;;;10.00;8.00;;;;;24.34;40.29;101417.59;4939982;28;45510;-47
2023/06/28 09:57:56;;;;;;;;;10.00;8.00;;;;;24.35;39.82;101412.19;4938850;28;45340;-51
2023/06/28 10:00:23;;;;;;;;;7.75;7.75;;;;;24.36;39.82;101416.53;4940384;28;45536;-56
2023/06/28 10:02:49;;;;;;;;;10.00;7.50;;;;;24.38;40.14;101405.84;4939038;28;45389;-54
2023/06/28 10:05:15;;;;;;;;;7.25;7.25;;;;;24.39;40.08;101411.06;4939230;28;45341;-52
2023/06/28 10:07:43;;;;;;;;;11.50;9.00;;;;;24.42;39.79;101406.53;4940097;28;45278;-60
2023/06/28 10:10:09;;;;;;;;;10.75;7.00;;;;;24.44;39.46;101408.13;4940199;28;45315;-57
2023/06/28 10:12:37;;;;;;;;;14.00;10.50;;;;;24.46;40.06;101402.72;4938583;28;47776;-53
2023/06/28 10:15:08;;;;;;;;;13.75;11.00;;;;;24.47;39.90;101394.69;4939924;28;45960;-55
2023/06/28 10:17:35;;;;;;;;;11.00;11.00;;;;;24.48;40.07;101392.88;4939288;28;45364;-46
2023/06/28 10:20:00;;;;;;;;;11.00;9.75;;;;;24.48;39.42;101400.81;4938331;28;45510;-47
2023/06/28 10:22:27;;;;;;;;;10.75;9.25;;;;;24.49;40.08;101387.47;4939373;28;56619;-47
2023/06/28 10:24:53;;;;;;;;;15.25;9.50;;;;;24.51;39.83;101387.38;4939732;28;45755;-51
2023/06/28 10:27:20;;;;;;;;;12.75;9.00;;;;;24.49;40.13;101387.47;4940250;28;45353;-52
2023/06/28 10:29:48;;;;;;;;;13.75;9.75;;;;;24.53;39.87;101377.50;4939998;28;45631;-46
2023/06/28 10:32:14;;;;;;;;;11.25;10.00;;;;;24.53;39.49;101382.81;4939347;28;45346;-50
2023/06/28 10:34:41;;;;;;;;;11.00;8.25;;;;;24.56;40.24;101387.91;4939564;28;45316;-49
2023/06/28 10:37:06;;;;;;;;;8.50;8.50;;;;;24.58;39.78;101385.19;4939656;28;45178;-51
2023/06/28 10:39:35;;;;;;;;;12.25;10.50;;;;;24.57;40.19;101381.69;4939819;28;45528;-51
2023/06/28 10:42:01;;;;;;;;;10.50;9.25;;;;;24.61;40.15;101391.16;4939496;28;46793;-44
2023/06/28 10:44:26;;;;;;;;;10.50;8.50;;;;;24.63;39.98;101386.59;4938008;28;45900;-48
2023/06/28 10:47:13;;;;;;;;;14.00;11.00;;;;;24.62;40.32;101384.91;4939845;28;45316;-52
2023/06/28 10:49:42;;;;;;;;;13.75;10.75;;;;;24.65;40.22;101387.31;4939361;28;45313;-55
2023/06/28 10:52:17;;;;;;;;;11.25;8.75;;;;;24.66;40.02;101383.72;4939397;28;46313;-52
2023/06/28 10:54:42;;;;;;;;;14.00;9.25;;;;;24.66;40.20;101382.91;4939413;28;45792;-42
2023/06/28 10:57:11;;;;;;;;;14.25;10.75;;;;;24.65;39.70;101379.38;4939463;28;45238;-48
2023/06/28 10:59:40;;;;;;;;;13.00;10.25;;;;;24.68;40.13;101381.00;4939553;28;45504;-45
2023/06/28 11:02:05;;;;;;;;;10.75;10.75;;;;;24.72;40.04;101379.03;4939070;28;46638;-42
2023/06/28 11:04:31;;;;;;;;;10.50;10.50;;;;;24.73;39.65;101375.44;4939149;28;45333;-47
2023/06/28 11:07:02;;;;;;;;;10.50;10.50;;;;;24.76;39.69;101372.56;4939219;28;45306;-41
2023/06/28 11:09:27;;;;;;;;;11.25;10.00;;;;;24.78;40.06;101370.66;4939430;28;45468;-45
2023/06/28 11:11:56;;;;;;;;;13.50;12.50;;;;;24.80;40.01;101368.78;4937771;28;56158;-42
2023/06/28 11:14:22;;;;;;;;;14.50;11.75;;;;;24.79;39.92;101361.75;4939259;28;45246;-47
2023/06/28 11:16:49;;;;;;;;;16.00;11.25;;;;;24.81;40.02;101359.88;4939038;28;45258;-43